Time;durP1;ratioP1;P1;durP2;ratioP2;P2;SDS_P1;SDS_P2;PMS_P1;PMS_P2;Temp;Humidity;BMP_temperature;BMP_pressure;BME280_temperature;BME280_humidity;BME280_pressure;Samples;Min_cycle;Max_cycle;Signal;HPM_P1;HPM_P2
2022/11/14 00:51:27;;;;;;;27.17;8.70;;;5.80;99.90;;;;;;5068818;28;21110;-69
2022/11/14 00:53:54;;;;;;;21.77;9.60;;;6.40;99.90;;;;;;5068856;28;20208;-68
2022/11/14 00:56:20;;;;;;;14.77;9.13;;;6.40;99.90;;;;;;5069138;28;20200;-69
2022/11/14 00:58:47;;;;;;;22.20;11.07;;;6.40;99.90;;;;;;5069094;28;20211;-68
2022/11/14 01:01:14;;;;;;;22.33;12.60;;;6.40;99.90;;;;;;5069003;28;20684;-68
2022/11/14 01:03:41;;;;;;;23.53;12.73;;;6.40;99.90;;;;;;5069307;28;20209;-68
2022/11/14 01:06:10;;;;;;;25.60;12.73;;;6.40;99.90;;;;;;5068970;28;20249;-68
2022/11/14 01:08:38;;;;;;;21.17;11.77;;;6.40;99.90;;;;;;5069237;28;20211;-68
2022/11/14 01:11:10;;;;;;;18.73;10.73;;;6.40;99.90;;;;;;5068611;28;20204;-68
2022/11/14 01:13:38;;;;;;;17.03;10.30;;;6.40;99.90;;;;;;5068932;28;20635;-68
2022/11/14 01:16:05;;;;;;;20.13;10.93;;;6.40;99.90;;;;;;5068601;28;20213;-68
2022/11/14 01:18:32;;;;;;;18.40;10.67;;;6.40;99.90;;;;;;5068377;28;20231;-68
2022/11/14 01:21:00;;;;;;;17.87;9.70;;;6.50;99.90;;;;;;5068702;28;20205;-69
2022/11/14 01:23:26;;;;;;;22.70;9.93;;;6.50;99.90;;;;;;5068576;28;20211;-71
2022/11/14 01:25:55;;;;;;;13.30;8.07;;;6.50;99.90;;;;;;5068480;28;20673;-68
2022/11/14 01:28:21;;;;;;;13.30;7.67;;;6.50;99.90;;;;;;5068992;28;20203;-68
2022/11/14 01:30:48;;;;;;;13.80;6.80;;;6.50;99.90;;;;;;5068327;28;20232;-68
2022/11/14 01:33:15;;;;;;;12.90;6.90;;;6.50;99.90;;;;;;5068612;28;20570;-68
2022/11/14 01:35:42;;;;;;;12.27;7.00;;;6.50;99.90;;;;;;5068258;28;20227;-69
2022/11/14 01:38:13;;;;;;;13.13;7.00;;;6.40;99.90;;;;;;5068344;28;20200;-69
2022/11/14 01:40:42;;;;;;;12.27;6.50;;;6.50;99.90;;;;;;5068311;28;20221;-67
2022/11/14 01:43:25;;;;;;;15.40;6.70;;;6.50;99.90;;;;;;5068214;28;20209;-68
2022/11/14 01:45:55;;;;;;;13.20;6.67;;;6.50;99.90;;;;;;5068000;28;20193;-69
2022/11/14 01:48:26;;;;;;;13.17;6.93;;;6.50;99.90;;;;;;5068025;28;20209;-68
2022/11/14 01:50:57;;;;;;;11.67;6.47;;;6.50;99.90;;;;;;5062776;28;20339;-68
2022/11/14 01:53:25;;;;;;;12.27;7.23;;;6.50;99.90;;;;;;5054865;28;20190;-68
2022/11/14 01:55:53;;;;;;;12.53;7.33;;;6.50;99.90;;;;;;5054666;28;20212;-69
2022/11/14 01:58:22;;;;;;;11.40;6.70;;;6.40;99.90;;;;;;5054454;28;20217;-69
2022/11/14 02:00:49;;;;;;;11.67;6.57;;;6.40;99.90;;;;;;5054369;28;20201;-68
2022/11/14 02:03:17;;;;;;;9.50;6.47;;;6.40;99.90;;;;;;5055203;28;20797;-68
2022/11/14 02:05:46;;;;;;;10.27;6.40;;;6.50;99.90;;;;;;5054880;28;20209;-68
2022/11/14 02:08:15;;;;;;;13.83;7.10;;;6.40;99.90;;;;;;5054970;28;20667;-69
2022/11/14 02:10:42;;;;;;;9.90;6.63;;;6.40;99.90;;;;;;5054221;28;20720;-68
2022/11/14 02:13:09;;;;;;;12.87;7.17;;;6.40;99.90;;;;;;5054345;28;20216;-69
2022/11/14 02:15:37;;;;;;;10.20;6.83;;;6.40;99.90;;;;;;5054604;28;20209;-69
2022/11/14 02:18:04;;;;;;;9.83;6.87;;;6.30;99.90;;;;;;5054486;28;20678;-69
2022/11/14 02:20:36;;;;;;;11.40;6.97;;;6.30;99.90;;;;;;5054747;28;20529;-68
2022/11/14 02:23:02;;;;;;;21.80;10.27;;;6.30;99.90;;;;;;5054247;28;20193;-68
2022/11/14 02:25:30;;;;;;;16.47;9.47;;;6.20;99.90;;;;;;5054306;28;20568;-68
2022/11/14 02:27:58;;;;;;;17.13;8.67;;;6.20;99.90;;;;;;5054186;28;20201;-68
2022/11/14 02:30:25;;;;;;;13.23;7.60;;;6.10;99.90;;;;;;5054401;28;20767;-68
2022/11/14 02:32:52;;;;;;;14.23;7.47;;;6.10;99.90;;;;;;5053842;28;20205;-68
2022/11/14 02:35:18;;;;;;;13.33;7.43;;;6.10;99.90;;;;;;5054419;28;20570;-67
2022/11/14 02:37:46;;;;;;;14.80;7.07;;;6.20;99.90;;;;;;5053610;28;20213;-68
2022/11/14 02:40:13;;;;;;;9.50;6.27;;;6.20;99.90;;;;;;5054314;28;20224;-67
2022/11/14 02:42:40;;;;;;;12.67;6.53;;;6.20;99.90;;;;;;5054130;28;20550;-67
2022/11/14 02:45:08;;;;;;;7.57;6.03;;;6.20;99.90;;;;;;5053838;28;20212;-68
2022/11/14 02:47:35;;;;;;;8.63;5.77;;;6.20;99.90;;;;;;5054394;28;20208;-69
2022/11/14 02:50:03;;;;;;;7.93;6.07;;;6.20;99.90;;;;;;5053691;28;20264;-69
2022/11/14 02:52:30;;;;;;;8.67;6.00;;;6.20;99.90;;;;;;5053762;28;20205;-68
2022/11/14 02:54:58;;;;;;;9.77;6.80;;;6.10;99.90;;;;;;5053462;28;20214;-69
2022/11/14 02:57:24;;;;;;;9.93;6.27;;;6.10;99.90;;;;;;5053438;28;20201;-69
2022/11/14 02:59:51;;;;;;;10.97;6.30;;;6.10;99.90;;;;;;5053050;28;20202;-69
2022/11/14 03:02:18;;;;;;;10.37;6.97;;;6.00;99.90;;;;;;5052385;28;20212;-69
2022/11/14 03:04:45;;;;;;;11.50;6.43;;;6.00;99.90;;;;;;5053116;28;20618;-68
2022/11/14 03:07:12;;;;;;;11.60;6.50;;;6.00;99.90;;;;;;5053400;28;20693;-69
2022/11/14 03:09:38;;;;;;;9.80;5.63;;;5.90;99.90;;;;;;5053280;28;20662;-68
2022/11/14 03:12:07;;;;;;;7.73;5.70;;;5.90;99.90;;;;;;5053303;28;20545;-69
2022/11/14 03:14:34;;;;;;;8.10;5.43;;;5.90;99.90;;;;;;5052997;28;20212;-67
2022/11/14 03:17:01;;;;;;;9.97;5.53;;;5.90;99.90;;;;;;5053263;28;20205;-69
2022/11/14 03:19:28;;;;;;;8.80;5.40;;;5.90;99.90;;;;;;5053019;28;20201;-69
2022/11/14 03:21:54;;;;;;;7.80;5.30;;;5.90;99.90;;;;;;5053235;28;20205;-70
2022/11/14 03:24:21;;;;;;;8.87;5.73;;;5.80;99.90;;;;;;5052936;28;20205;-69
2022/11/14 03:26:48;;;;;;;13.20;6.83;;;5.80;99.90;;;;;;5052662;28;20502;-68
2022/11/14 03:29:16;;;;;;;12.47;6.13;;;5.80;99.90;;;;;;5052843;28;20206;-68
2022/11/14 03:31:43;;;;;;;7.63;5.60;;;5.70;99.90;;;;;;5052648;28;20204;-68
2022/11/14 03:34:10;;;;;;;8.70;5.93;;;5.70;99.90;;;;;;5053196;28;20227;-68
2022/11/14 03:36:37;;;;;;;8.07;5.37;;;5.70;99.90;;;;;;5052896;28;20231;-68
2022/11/14 03:39:05;;;;;;;7.97;5.07;;;5.70;99.90;;;;;;5052949;28;20585;-68
2022/11/14 03:41:32;;;;;;;7.67;5.23;;;5.60;99.90;;;;;;5052429;28;20223;-68
2022/11/14 03:43:59;;;;;;;7.10;4.67;;;5.60;99.90;;;;;;5053009;28;20679;-68
2022/11/14 03:46:27;;;;;;;10.77;5.43;;;5.60;99.90;;;;;;5052527;28;20205;-69
2022/11/14 03:48:53;;;;;;;17.60;5.57;;;5.60;99.90;;;;;;5052988;28;20296;-69
2022/11/14 03:51:20;;;;;;;9.43;4.90;;;5.50;99.90;;;;;;5052192;28;20242;-69
2022/11/14 03:53:47;;;;;;;15.60;4.63;;;5.50;99.90;;;;;;5052640;28;20212;-69
2022/11/14 03:56:14;;;;;;;15.53;5.57;;;5.40;99.90;;;;;;5052565;28;20206;-68
2022/11/14 03:58:41;;;;;;;39.53;6.40;;;5.40;99.90;;;;;;5052060;28;20205;-68
2022/11/14 04:01:08;;;;;;;14.60;4.57;;;5.30;99.90;;;;;;5052902;28;20198;-69
2022/11/14 04:03:36;;;;;;;18.77;5.03;;;5.30;99.90;;;;;;5052299;28;20205;-67
2022/11/14 04:06:03;;;;;;;17.83;4.87;;;5.20;99.90;;;;;;5050971;28;20662;-69
2022/11/14 04:08:30;;;;;;;21.50;5.50;;;5.10;99.90;;;;;;5031979;28;20212;-69
2022/11/14 04:10:56;;;;;;;46.17;6.90;;;5.00;99.90;;;;;;5032182;28;20229;-69
2022/11/14 04:13:23;;;;;;;56.33;7.30;;;4.80;99.90;;;;;;5031628;28;20205;-70
2022/11/14 04:15:55;;;;;;;24.50;5.70;;;4.70;99.90;;;;;;5031198;28;20297;-69
2022/11/14 04:18:23;;;;;;;27.70;5.73;;;4.60;99.90;;;;;;5031925;28;20190;-69
2022/11/14 04:20:51;;;;;;;52.53;8.37;;;4.50;99.90;;;;;;5031693;28;20198;-69
2022/11/14 04:23:18;;;;;;;31.20;7.13;;;4.40;99.90;;;;;;5031873;28;20210;-69
2022/11/14 04:25:45;;;;;;;26.37;7.00;;;4.30;99.90;;;;;;5031693;28;20689;-69
2022/11/14 04:28:13;;;;;;;18.97;6.03;;;4.30;99.90;;;;;;5031722;28;20208;-70
2022/11/14 04:30:40;;;;;;;14.03;5.40;;;4.20;99.90;;;;;;5030595;28;20217;-70
2022/11/14 04:33:06;;;;;;;7.97;4.83;;;4.20;99.90;;;;;;5036816;28;20202;-68
2022/11/14 04:35:33;;;;;;;13.80;6.17;;;4.20;99.90;;;;;;5051167;28;20213;-69
2022/11/14 04:38:01;;;;;;;12.37;5.90;;;4.20;99.90;;;;;;5051895;28;20217;-69
2022/11/14 04:40:28;;;;;;;8.17;5.67;;;4.10;99.90;;;;;;5046887;28;20222;-69
2022/11/14 04:42:55;;;;;;;8.40;5.10;;;4.10;99.90;;;;;;5031601;28;20210;-71
2022/11/14 04:45:22;;;;;;;8.43;5.73;;;4.10;99.90;;;;;;5031567;28;20206;-70
2022/11/14 04:47:49;;;;;;;9.07;6.20;;;4.10;99.90;;;;;;5031642;28;20216;-69
2022/11/14 04:50:15;;;;;;;7.73;5.73;;;4.10;99.90;;;;;;5031261;28;20233;-69
2022/11/14 04:52:42;;;;;;;12.43;8.27;;;4.10;99.90;;;;;;5032583;28;20222;-69
2022/11/14 04:55:10;;;;;;;9.00;6.43;;;4.00;99.90;;;;;;5031952;28;20210;-72
2022/11/14 04:57:37;;;;;;;12.17;5.47;;;4.00;99.90;;;;;;5031414;28;20301;-69
2022/11/14 05:00:05;;;;;;;6.83;4.80;;;3.90;99.90;;;;;;5031390;28;20229;-70
2022/11/14 05:02:32;;;;;;;14.20;5.73;;;3.90;99.90;;;;;;5037674;28;20211;-69
2022/11/14 05:04:59;;;;;;;20.57;6.83;;;3.90;99.90;;;;;;5051434;28;20205;-70
2022/11/14 05:07:25;;;;;;;68.67;9.70;;;3.80;99.90;;;;;;5050554;28;20217;-69
2022/11/14 05:09:52;;;;;;;19.50;5.90;;;3.80;99.90;;;;;;5050864;28;20221;-67
2022/11/14 05:12:21;;;;;;;35.90;7.63;;;3.70;99.90;;;;;;5048415;28;20202;-69
2022/11/14 05:14:47;;;;;;;49.30;9.50;;;3.70;99.90;;;;;;5049182;28;20216;-67
2022/11/14 05:17:15;;;;;;;26.03;8.43;;;3.70;99.90;;;;;;5051018;28;20212;-67
2022/11/14 05:19:42;;;;;;;16.47;6.80;;;3.60;99.90;;;;;;5050958;28;20202;-68
2022/11/14 05:22:08;;;;;;;28.33;7.67;;;3.60;99.90;;;;;;5050811;28;20232;-67
2022/11/14 05:24:35;;;;;;;19.47;7.20;;;3.60;99.90;;;;;;5047104;28;20213;-69
2022/11/14 05:27:02;;;;;;;22.93;6.40;;;3.60;99.90;;;;;;5053693;28;20682;-68
2022/11/14 05:29:30;;;;;;;12.67;6.37;;;3.60;99.90;;;;;;5054585;28;20201;-68
2022/11/14 05:31:57;;;;;;;19.10;6.77;;;3.60;99.90;;;;;;5054942;28;20208;-68
2022/11/14 05:34:24;;;;;;;22.60;7.47;;;3.60;99.90;;;;;;5045183;28;20286;-68
2022/11/14 05:36:51;;;;;;;35.80;7.30;;;3.60;99.90;;;;;;5034843;28;20273;-68
2022/11/14 05:39:18;;;;;;;29.40;8.03;;;3.60;99.90;;;;;;5034353;28;20210;-68
2022/11/14 05:41:45;;;;;;;18.17;6.97;;;3.60;99.90;;;;;;5034523;28;20222;-69
2022/11/14 05:44:11;;;;;;;20.83;6.53;;;3.60;99.90;;;;;;5038419;28;20201;-68
2022/11/14 05:46:39;;;;;;;18.73;6.43;;;3.60;99.90;;;;;;5054753;28;20212;-69
2022/11/14 05:49:06;;;;;;;15.60;6.20;;;3.50;99.90;;;;;;5054203;28;20209;-69
2022/11/14 05:51:33;;;;;;;17.53;7.50;;;3.50;99.90;;;;;;5054716;28;20190;-70
2022/11/14 05:54:00;;;;;;;19.90;6.77;;;3.50;99.90;;;;;;5054040;28;20208;-70
2022/11/14 05:56:27;;;;;;;19.07;7.67;;;3.50;99.90;;;;;;5037677;28;20722;-70
2022/11/14 05:58:53;;;;;;;27.33;7.67;;;3.50;99.90;;;;;;5034621;28;20779;-68
2022/11/14 06:01:20;;;;;;;14.07;6.53;;;3.40;99.90;;;;;;5034374;28;20226;-71
2022/11/14 10:46:29;;;;;;;13.17;7.73;;;7.10;99.90;;;;;;6122667;22;1310192;-64
2022/11/14 10:48:56;;;;;;;13.53;7.07;;;7.10;99.90;;;;;;6160159;23;20469;-64
2022/11/14 10:51:31;;;;;;;13.40;7.90;;;7.20;99.90;;;;;;6162504;23;20188;-65
2022/11/14 10:54:04;;;;;;;12.40;7.40;;;7.20;99.90;;;;;;6161479;23;20202;-65
2022/11/14 10:56:31;;;;;;;13.07;6.90;;;7.20;99.90;;;;;;6162082;23;20183;-64
2022/11/14 10:58:58;;;;;;;14.00;7.30;;;7.10;99.90;;;;;;6162609;23;20504;-64
2022/11/14 11:01:38;;;;;;;15.07;7.87;;;7.20;99.90;;;;;;6162426;23;20179;-64
2022/11/14 11:04:29;;;;;;;16.33;8.47;;;7.20;99.90;;;;;;6162572;23;20169;-64
2022/11/14 11:11:28;;;;;;;17.43;9.33;;;7.10;99.90;;;;;;6140257;23;20558;-67
2022/11/14 11:12:48;;;;;;;14.87;8.70;;;7.30;99.90;;;;;;6162044;23;20627;-64
2022/11/14 11:15:18;;;;;;;13.50;8.37;;;7.40;99.90;;;;;;6162388;23;20178;-65
2022/11/14 11:17:56;;;;;;;18.43;9.73;;;7.40;99.90;;;;;;6162474;23;20481;-64
2022/11/14 11:20:32;;;;;;;16.93;9.73;;;7.50;99.90;;;;;;6162450;23;20185;-64
2022/11/14 11:23:04;;;;;;;18.67;9.53;;;7.60;99.90;;;;;;6161278;23;20188;-66
2022/11/14 11:25:32;;;;;;;13.87;8.97;;;7.70;99.90;;;;;;6161540;23;20201;-64
2022/11/14 11:28:08;;;;;;;13.27;8.50;;;7.60;99.90;;;;;;6161678;23;20175;-65
2022/11/14 11:30:34;;;;;;;15.70;8.43;;;7.70;99.90;;;;;;6162089;23;20200;-66
2022/11/14 11:33:24;;;;;;;16.80;9.07;;;7.80;99.90;;;;;;6162359;23;20214;-65
2022/11/14 11:35:54;;;;;;;15.57;9.37;;;7.90;99.90;;;;;;6162549;23;20588;-65
2022/11/14 11:38:23;;;;;;;16.20;8.57;;;8.00;99.90;;;;;;6158758;23;20175;-66
2022/11/14 11:40:54;;;;;;;14.20;7.47;;;8.10;99.90;;;;;;6156116;23;20183;-66
2022/11/14 11:43:30;;;;;;;16.23;8.70;;;8.10;99.90;;;;;;6155651;23;20186;-64
2022/11/14 11:45:59;;;;;;;15.33;9.77;;;8.10;99.90;;;;;;6155572;23;20214;-65
2022/11/14 11:48:34;;;;;;;16.30;10.33;;;8.20;99.90;;;;;;6155625;23;20236;-65
2022/11/14 11:51:02;;;;;;;15.70;10.10;;;8.20;99.90;;;;;;6155857;23;20222;-67
2022/11/14 11:53:34;;;;;;;15.03;8.97;;;8.30;99.90;;;;;;6155503;23;20198;-67
2022/11/14 11:56:06;;;;;;;15.67;8.97;;;8.30;99.90;;;;;;6155162;23;20168;-65
2022/11/14 11:58:37;;;;;;;16.20;9.13;;;8.30;99.90;;;;;;6155484;23;20701;-65
2022/11/14 12:01:04;;;;;;;15.13;9.40;;;8.20;99.90;;;;;;6155981;23;20483;-65
2022/11/14 12:03:35;;;;;;;16.53;9.80;;;8.20;99.90;;;;;;6155294;23;20206;-65
2022/11/14 12:06:13;;;;;;;14.57;9.13;;;8.30;99.90;;;;;;6155622;23;20246;-66
2022/11/14 12:08:51;;;;;;;13.80;8.20;;;8.30;99.90;;;;;;6155842;23;20163;-65
2022/11/14 12:11:21;;;;;;;14.87;8.50;;;8.40;99.90;;;;;;6155541;23;20185;-66
2022/11/14 12:14:15;;;;;;;15.43;8.53;;;8.50;99.90;;;;;;6155431;23;20333;-64
2022/11/14 12:17:14;;;;;;;14.33;8.30;;;8.50;99.90;;;;;;6139571;23;20261;-66
2022/11/14 12:20:05;;;;;;;11.97;7.83;;;8.50;99.90;;;;;;6155229;23;20174;-66
2022/11/14 12:22:45;;;;;;;14.27;7.23;;;8.50;99.90;;;;;;6155474;23;20254;-64
2022/11/14 12:25:36;;;;;;;14.03;7.77;;;8.60;99.90;;;;;;6155326;23;20185;-64
2022/11/14 12:28:15;;;;;;;13.27;8.07;;;8.60;99.90;;;;;;6154837;23;20183;-63
2022/11/14 12:30:47;;;;;;;13.57;7.80;;;8.60;99.90;;;;;;6154916;23;20189;-66
2022/11/14 12:33:21;;;;;;;12.40;7.30;;;8.50;99.90;;;;;;6154884;23;20606;-67
2022/11/14 12:35:52;;;;;;;16.20;8.73;;;8.50;99.90;;;;;;6155715;23;20461;-63
2022/11/14 12:38:20;;;;;;;15.07;9.30;;;8.60;99.90;;;;;;6155709;23;20202;-68
2022/11/14 12:40:53;;;;;;;16.33;9.30;;;8.70;99.90;;;;;;6155275;23;20183;-66
2022/11/14 12:43:40;;;;;;;15.17;9.57;;;8.70;99.90;;;;;;6155201;23;20166;-65
2022/11/14 12:46:08;;;;;;;15.47;9.13;;;8.80;99.90;;;;;;6154580;23;20314;-64
2022/11/14 12:48:37;;;;;;;16.67;8.87;;;8.80;99.90;;;;;;6154349;23;20273;-64
2022/11/14 12:51:25;;;;;;;13.40;8.40;;;8.80;99.90;;;;;;6154128;23;20183;-63
2022/11/14 12:53:53;;;;;;;17.37;8.90;;;8.80;99.90;;;;;;6155444;23;20221;-67
2022/11/14 12:56:54;;;;;;;15.27;9.90;;;8.80;99.90;;;;;;6155345;23;20179;-65
2022/11/14 12:59:47;;;;;;;15.97;9.57;;;8.80;99.90;;;;;;6139918;23;20185;-66
2022/11/14 13:02:35;;;;;;;14.20;9.07;;;8.80;99.90;;;;;;6154734;23;20178;-65
2022/11/14 13:05:36;;;;;;;14.30;8.30;;;8.80;99.90;;;;;;6154436;23;20178;-66
2022/11/14 13:08:19;;;;;;;16.23;9.00;;;8.70;99.90;;;;;;6155078;23;20174;-64
2022/11/14 13:10:46;;;;;;;14.77;8.77;;;8.60;99.90;;;;;;6154920;23;20491;-66
2022/11/14 13:22:33;;;;;;;17.53;9.33;;;8.60;99.90;;;;;;6155097;23;20162;-65
2022/11/14 13:25:20;;;;;;;17.80;9.63;;;8.50;99.90;;;;;;6064245;23;20673;-66
2022/11/14 13:27:47;;;;;;;18.87;9.90;;;8.50;99.90;;;;;;6064432;23;20171;-65
2022/11/14 13:30:14;;;;;;;18.60;10.90;;;8.50;99.90;;;;;;6064345;23;20185;-65
2022/11/14 13:33:04;;;;;;;21.43;11.77;;;8.50;99.90;;;;;;6064730;23;20547;-66
2022/11/14 13:35:57;;;;;;;19.47;11.07;;;8.40;99.90;;;;;;6063512;23;20173;-67
2022/11/14 13:39:24;;;;;;;23.20;11.70;;;8.40;99.90;;;;;;6063902;23;20189;-65
2022/11/14 13:42:15;;;;;;;19.63;8.83;;;8.30;99.90;;;;;;5998322;23;20194;-65
2022/11/14 13:45:15;;;;;;;17.10;9.33;;;8.20;99.90;;;;;;6063528;23;20440;-65
2022/11/14 13:48:16;;;;;;;17.03;9.03;;;8.10;99.90;;;;;;6064287;23;20165;-64
2022/11/14 13:50:47;;;;;;;15.60;8.50;;;8.10;99.90;;;;;;6063874;23;20165;-64
2022/11/14 13:53:18;;;;;;;13.70;7.37;;;8.10;99.90;;;;;;6064037;23;20207;-65
2022/11/14 13:55:56;;;;;;;16.60;8.07;;;8.00;99.90;;;;;;6102466;23;20279;-64
2022/11/14 13:58:50;;;;;;;17.40;7.70;;;8.00;99.90;;;;;;6154724;23;20187;-66
2022/11/14 14:01:33;;;;;;;12.77;6.87;;;7.90;99.90;;;;;;6153889;23;20183;-65
2022/11/14 14:04:17;;;;;;;10.93;6.33;;;7.90;99.90;;;;;;6153674;23;20167;-66
2022/11/14 14:06:56;;;;;;;13.00;7.10;;;7.80;99.90;;;;;;6154852;23;20167;-64
2022/11/14 14:09:28;;;;;;;11.70;6.83;;;7.80;99.90;;;;;;6154109;23;20258;-65
2022/11/14 14:12:13;;;;;;;11.53;7.40;;;7.80;99.90;;;;;;6154240;23;20164;-65
2022/11/14 14:15:03;;;;;;;18.00;7.47;;;7.80;99.90;;;;;;6154665;23;20163;-66
2022/11/14 14:17:39;;;;;;;13.23;7.27;;;7.80;99.90;;;;;;6154563;23;20199;-64
2022/11/14 14:20:19;;;;;;;12.40;7.20;;;7.80;99.90;;;;;;6153804;23;20163;-66
2022/11/14 14:22:56;;;;;;;11.73;7.13;;;7.80;99.90;;;;;;6154325;23;20170;-65
2022/11/14 14:25:31;;;;;;;12.83;7.10;;;7.70;99.90;;;;;;6154675;23;20162;-68
2022/11/14 14:28:09;;;;;;;12.63;8.03;;;7.70;99.90;;;;;;6154122;23;20169;-66
2022/11/14 14:30:37;;;;;;;15.90;7.40;;;7.70;99.90;;;;;;6154266;23;20194;-64
2022/11/14 14:33:12;;;;;;;11.80;7.80;;;7.70;99.90;;;;;;6154329;23;20193;-67
2022/11/14 14:35:49;;;;;;;13.67;7.37;;;7.70;99.90;;;;;;6153992;23;20265;-64
2022/11/14 14:38:23;;;;;;;11.80;6.30;;;7.60;99.90;;;;;;6154382;23;20187;-64
2022/11/14 14:40:50;;;;;;;13.40;6.07;;;7.60;99.90;;;;;;6154381;23;20167;-67
2022/11/14 14:43:25;;;;;;;13.10;6.40;;;7.50;99.90;;;;;;6154621;23;20185;-64
2022/11/14 14:45:54;;;;;;;11.63;6.50;;;7.50;99.90;;;;;;6153723;23;20672;-67
2022/11/14 14:48:25;;;;;;;14.80;7.20;;;7.40;99.90;;;;;;6154295;23;20178;-64
2022/11/14 14:50:53;;;;;;;12.23;6.60;;;7.40;99.90;;;;;;6154013;23;20162;-65
2022/11/14 14:53:22;;;;;;;14.43;6.37;;;7.40;99.90;;;;;;6154221;23;20199;-64
2022/11/14 14:55:54;;;;;;;11.80;7.30;;;7.40;99.90;;;;;;6154499;23;20185;-64
2022/11/14 14:58:26;;;;;;;16.43;8.40;;;7.30;99.90;;;;;;6153795;23;20199;-66
2022/11/14 15:00:57;;;;;;;14.97;8.10;;;7.30;99.90;;;;;;6153968;23;20190;-65
2022/11/14 15:03:27;;;;;;;18.47;8.10;;;7.20;99.90;;;;;;6154148;23;20170;-66
2022/11/14 15:05:59;;;;;;;18.33;8.87;;;7.20;99.90;;;;;;6154543;23;20210;-67
2022/11/14 15:08:26;;;;;;;19.53;10.30;;;7.20;99.90;;;;;;6154666;23;20167;-66
2022/11/14 15:10:57;;;;;;;18.03;9.57;;;7.10;99.90;;;;;;6154055;23;20193;-66
2022/11/14 15:13:25;;;;;;;17.77;9.23;;;7.10;99.90;;;;;;6155163;23;20162;-66
2022/11/14 15:15:52;;;;;;;20.27;9.33;;;7.00;99.90;;;;;;6156397;23;20178;-66
2022/11/14 15:18:24;;;;;;;20.03;9.67;;;7.00;99.90;;;;;;6155475;23;20207;-67
2022/11/14 15:21:07;;;;;;;23.13;9.50;;;6.90;99.90;;;;;;6155551;23;20174;-67
2022/11/14 15:23:39;;;;;;;19.37;10.53;;;6.80;99.90;;;;;;6153345;23;20699;-66
2022/11/14 15:26:13;;;;;;;27.93;12.13;;;6.80;99.90;;;;;;6155033;23;20173;-67
2022/11/14 15:28:40;;;;;;;22.43;11.23;;;6.70;99.90;;;;;;6155536;23;20166;-66
2022/11/14 15:31:15;;;;;;;23.63;11.33;;;6.70;99.90;;;;;;6155380;23;20178;-66
2022/11/14 15:33:43;;;;;;;21.27;11.60;;;6.60;99.90;;;;;;6156047;23;20540;-66
2022/11/14 15:36:12;;;;;;;22.93;12.10;;;6.50;99.90;;;;;;6156474;23;20246;-66
2022/11/14 15:38:39;;;;;;;20.20;10.17;;;6.40;99.90;;;;;;6155125;23;20207;-68
2022/11/14 15:41:19;;;;;;;18.07;9.53;;;6.40;99.90;;;;;;6155313;23;20202;-67
2022/11/14 15:43:51;;;;;;;14.17;8.90;;;6.30;99.90;;;;;;6155216;23;20166;-67
2022/11/14 15:46:43;;;;;;;16.47;9.30;;;6.20;99.90;;;;;;6155582;23;20538;-66
2022/11/14 15:49:21;;;;;;;15.93;9.83;;;6.20;99.90;;;;;;6150635;23;20182;-66
2022/11/14 15:51:50;;;;;;;15.90;9.93;;;6.10;99.90;;;;;;6155144;23;20202;-66
2022/11/14 15:54:26;;;;;;;19.47;10.93;;;6.00;99.90;;;;;;6155179;23;20193;-64
2022/11/14 15:56:57;;;;;;;18.37;11.63;;;6.00;99.90;;;;;;6155318;23;20167;-65
2022/11/14 15:59:24;;;;;;;18.17;11.77;;;5.80;99.90;;;;;;6155171;23;20193;-64
2022/11/14 16:01:54;;;;;;;22.73;13.70;;;5.70;99.90;;;;;;6155579;23;20501;-66
2022/11/14 16:04:30;;;;;;;33.53;18.23;;;5.70;99.90;;;;;;6156357;23;20183;-66
2022/11/14 16:06:56;;;;;;;28.33;17.63;;;5.60;99.90;;;;;;6155732;23;20400;-67
2022/11/14 16:09:23;;;;;;;29.43;17.40;;;5.60;99.90;;;;;;6155726;23;20609;-65
2022/11/14 16:11:50;;;;;;;26.47;17.27;;;5.50;99.90;;;;;;6155052;23;20179;-65
2022/11/14 16:14:17;;;;;;;34.63;18.80;;;5.50;99.90;;;;;;6155128;23;20185;-64
2022/11/14 16:16:44;;;;;;;30.80;17.77;;;5.50;99.90;;;;;;6154927;23;20206;-67
2022/11/14 16:19:13;;;;;;;26.67;16.50;;;5.40;99.90;;;;;;6155247;23;20202;-67
2022/11/14 16:21:43;;;;;;;22.90;14.70;;;5.40;99.90;;;;;;6155405;23;20628;-67
2022/11/14 16:24:15;;;;;;;30.27;16.20;;;5.30;99.90;;;;;;6155252;23;20189;-65
2022/11/14 16:26:42;;;;;;;23.40;14.70;;;5.30;99.90;;;;;;6155433;23;20205;-66
2022/11/14 16:29:09;;;;;;;23.23;14.93;;;5.30;99.90;;;;;;6155471;23;20182;-68
2022/11/14 16:31:36;;;;;;;26.57;16.20;;;5.30;99.90;;;;;;6155334;23;20189;-67
2022/11/14 16:34:03;;;;;;;24.33;14.53;;;5.20;99.90;;;;;;6155281;23;20179;-66
2022/11/14 16:36:30;;;;;;;25.30;15.70;;;5.20;99.90;;;;;;6155301;23;20189;-66
2022/11/14 16:39:00;;;;;;;24.23;13.97;;;5.30;99.90;;;;;;6155092;23;20495;-67
2022/11/14 16:41:28;;;;;;;24.10;14.27;;;5.30;99.90;;;;;;6155196;23;20233;-64
2022/11/14 16:43:55;;;;;;;19.47;13.10;;;5.30;99.90;;;;;;6155565;23;20655;-67
2022/11/14 16:46:22;;;;;;;18.63;11.63;;;5.30;99.90;;;;;;6155089;23;20565;-68
2022/11/14 16:48:49;;;;;;;21.07;12.80;;;5.30;99.90;;;;;;6155349;23;20178;-66
2022/11/14 16:51:16;;;;;;;20.40;12.17;;;5.40;99.90;;;;;;6154572;23;20347;-67
2022/11/14 16:53:43;;;;;;;19.40;11.90;;;5.40;99.90;;;;;;6154800;23;20179;-68
2022/11/14 16:56:12;;;;;;;19.10;12.33;;;5.40;99.90;;;;;;6154818;23;20189;-69
2022/11/14 16:58:40;;;;;;;20.37;12.17;;;5.40;99.90;;;;;;6154515;23;20348;-65
2022/11/14 17:01:08;;;;;;;20.20;11.77;;;5.40;99.90;;;;;;6154658;23;20214;-65
2022/11/14 17:03:34;;;;;;;17.90;11.77;;;5.40;99.90;;;;;;6154552;23;20189;-68
2022/11/14 17:06:01;;;;;;;27.73;18.63;;;5.40;99.90;;;;;;6154772;23;20186;-69
2022/11/14 17:08:28;;;;;;;19.60;14.20;;;5.40;99.90;;;;;;6155029;23;20181;-66
2022/11/14 17:10:55;;;;;;;16.77;12.00;;;5.50;99.90;;;;;;6151885;23;20772;-66
2022/11/14 17:13:24;;;;;;;23.30;13.43;;;5.50;99.90;;;;;;6151636;23;20245;-65
2022/11/14 17:15:51;;;;;;;22.67;13.53;;;5.50;99.90;;;;;;6154451;23;20203;-65
2022/11/14 17:18:18;;;;;;;22.33;12.97;;;5.60;99.90;;;;;;6153634;23;20522;-65
2022/11/14 17:20:44;;;;;;;19.47;13.60;;;5.60;99.90;;;;;;6154366;23;20206;-67
2022/11/14 17:23:11;;;;;;;18.57;12.33;;;5.60;99.90;;;;;;6153832;23;20190;-64
2022/11/14 17:25:38;;;;;;;19.10;12.13;;;5.60;99.90;;;;;;6154115;23;20262;-65
2022/11/14 17:28:05;;;;;;;19.03;12.67;;;5.60;99.90;;;;;;6154684;23;20174;-66
2022/11/14 17:30:33;;;;;;;20.07;13.10;;;5.60;99.90;;;;;;6154145;23;20652;-65
2022/11/14 17:33:00;;;;;;;21.03;13.20;;;5.60;99.90;;;;;;6153710;23;20266;-64
2022/11/14 17:35:26;;;;;;;22.93;14.20;;;5.60;99.90;;;;;;6153569;23;20179;-66
2022/11/14 17:37:53;;;;;;;18.97;12.60;;;5.70;99.90;;;;;;6154034;23;20203;-64
2022/11/14 17:40:20;;;;;;;24.77;15.20;;;5.70;99.90;;;;;;6154736;23;20189;-66
2022/11/14 17:42:47;;;;;;;25.23;14.50;;;5.70;99.90;;;;;;6154533;23;20186;-66
2022/11/14 17:45:13;;;;;;;24.17;15.47;;;5.70;99.90;;;;;;6153821;23;20207;-66
2022/11/14 17:47:42;;;;;;;22.03;14.03;;;5.70;99.90;;;;;;6154459;23;20488;-64
2022/11/14 17:50:09;;;;;;;22.77;14.10;;;5.70;99.90;;;;;;6154326;23;20178;-63
2022/11/14 17:52:36;;;;;;;20.43;13.63;;;5.70;99.90;;;;;;6154240;23;20179;-66
2022/11/14 17:55:03;;;;;;;20.63;13.90;;;5.80;99.90;;;;;;6154952;23;20182;-64
2022/11/14 17:57:30;;;;;;;23.20;14.43;;;5.80;99.90;;;;;;6154484;23;20345;-64
2022/11/14 17:59:56;;;;;;;24.20;15.23;;;5.80;99.90;;;;;;6153484;23;20227;-65
2022/11/14 18:02:23;;;;;;;22.07;15.10;;;5.80;99.90;;;;;;6153805;23;20189;-67
2022/11/14 18:04:51;;;;;;;21.10;13.57;;;5.80;99.90;;;;;;6153823;23;20648;-66
2022/11/14 18:07:19;;;;;;;21.27;14.13;;;5.90;99.90;;;;;;6154304;23;20550;-64
2022/11/14 18:09:46;;;;;;;21.77;13.70;;;5.80;99.90;;;;;;6153641;23;20187;-65
2022/11/14 18:12:12;;;;;;;25.00;14.17;;;5.80;99.90;;;;;;6153392;23;20179;-64
2022/11/14 18:14:39;;;;;;;20.23;12.37;;;5.80;99.90;;;;;;6153506;23;20182;-64
2022/11/14 18:17:06;;;;;;;17.97;11.40;;;5.80;99.90;;;;;;6151368;23;20186;-65
2022/11/14 18:19:33;;;;;;;20.27;11.97;;;5.90;99.90;;;;;;6152976;23;20221;-63
2022/11/14 18:22:01;;;;;;;16.10;9.90;;;5.90;99.90;;;;;;6153688;23;20183;-65
2022/11/14 18:24:28;;;;;;;17.83;10.60;;;5.90;99.90;;;;;;6153740;23;20178;-66
2022/11/14 18:26:54;;;;;;;22.10;12.93;;;5.90;99.90;;;;;;6154337;23;20695;-66
2022/11/14 18:29:21;;;;;;;19.10;11.53;;;5.90;99.90;;;;;;6154136;23;20197;-66
2022/11/14 18:31:48;;;;;;;18.13;10.83;;;5.90;99.90;;;;;;6154118;23;20277;-67
2022/11/14 18:34:15;;;;;;;21.20;13.77;;;5.90;99.90;;;;;;6154039;23;20262;-68
2022/11/14 18:36:42;;;;;;;18.40;12.60;;;5.90;99.90;;;;;;6154224;23;20183;-65
2022/11/14 18:39:10;;;;;;;15.97;11.07;;;5.90;99.90;;;;;;6154073;23;20198;-68
2022/11/14 18:41:36;;;;;;;19.13;12.77;;;6.00;99.90;;;;;;6151063;23;20205;-66
2022/11/14 18:44:04;;;;;;;22.93;12.57;;;6.00;99.90;;;;;;6153214;23;20179;-67
2022/11/14 18:46:31;;;;;;;20.13;13.27;;;6.00;99.90;;;;;;6151823;23;20458;-69
2022/11/14 18:48:58;;;;;;;29.20;15.17;;;6.00;99.90;;;;;;6153947;23;20629;-67